sensor_id;sensor_type;location;lat;lon;timestamp;temperature;humidity
17399;DHT22;8817;48.170;8.592;2022-09-09T00:00:49;20.90;43.20
17399;DHT22;8817;48.170;8.592;2022-09-09T00:03:19;20.90;43.20
17399;DHT22;8817;48.170;8.592;2022-09-09T00:05:56;21.00;43.30
17399;DHT22;8817;48.170;8.592;2022-09-09T00:08:31;20.90;43.30
17399;DHT22;8817;48.170;8.592;2022-09-09T00:11:03;20.90;43.30
17399;DHT22;8817;48.170;8.592;2022-09-09T00:13:36;21.00;43.30
17399;DHT22;8817;48.170;8.592;2022-09-09T00:16:10;20.90;43.30
17399;DHT22;8817;48.170;8.592;2022-09-09T00:18:50;20.90;43.30
17399;DHT22;8817;48.170;8.592;2022-09-09T00:21:21;20.90;43.30
17399;DHT22;8817;48.170;8.592;2022-09-09T00:23:53;20.90;43.30
17399;DHT22;8817;48.170;8.592;2022-09-09T00:26:24;20.90;43.20
17399;DHT22;8817;48.170;8.592;2022-09-09T00:29:03;20.90;43.30
17399;DHT22;8817;48.170;8.592;2022-09-09T00:31:32;20.90;43.30
17399;DHT22;8817;48.170;8.592;2022-09-09T00:34:03;20.90;43.30
17399;DHT22;8817;48.170;8.592;2022-09-09T00:36:36;20.80;43.30
17399;DHT22;8817;48.170;8.592;2022-09-09T00:39:05;20.80;43.30
17399;DHT22;8817;48.170;8.592;2022-09-09T00:41:44;20.80;43.30
17399;DHT22;8817;48.170;8.592;2022-09-09T00:44:21;20.80;43.30
17399;DHT22;8817;48.170;8.592;2022-09-09T00:47:04;20.70;43.30
17399;DHT22;8817;48.170;8.592;2022-09-09T00:49:43;20.70;43.30
17399;DHT22;8817;48.170;8.592;2022-09-09T00:52:24;20.70;43.40
17399;DHT22;8817;48.170;8.592;2022-09-09T00:55:03;20.60;43.30
17399;DHT22;8817;48.170;8.592;2022-09-09T00:57:32;20.70;43.40
17399;DHT22;8817;48.170;8.592;2022-09-09T01:00:19;20.60;43.30
17399;DHT22;8817;48.170;8.592;2022-09-09T01:03:07;20.60;43.40
17399;DHT22;8817;48.170;8.592;2022-09-09T01:05:42;20.50;43.40
17399;DHT22;8817;48.170;8.592;2022-09-09T01:08:21;20.50;43.50
17399;DHT22;8817;48.170;8.592;2022-09-09T01:10:56;20.50;43.50
17399;DHT22;8817;48.170;8.592;2022-09-09T01:13:27;20.50;43.50
17399;DHT22;8817;48.170;8.592;2022-09-09T01:15:57;20.50;43.60
17399;DHT22;8817;48.170;8.592;2022-09-09T01:18:29;20.50;43.70
17399;DHT22;8817;48.170;8.592;2022-09-09T01:21:04;20.50;44.20
17399;DHT22;8817;48.170;8.592;2022-09-09T01:23:56;20.40;43.70
17399;DHT22;8817;48.170;8.592;2022-09-09T01:26:30;20.50;44.30
17399;DHT22;8817;48.170;8.592;2022-09-09T01:28:59;20.50;43.70
17399;DHT22;8817;48.170;8.592;2022-09-09T01:31:29;20.50;43.80
17399;DHT22;8817;48.170;8.592;2022-09-09T01:33:58;20.50;43.80
17399;DHT22;8817;48.170;8.592;2022-09-09T01:36:31;20.40;43.80
17399;DHT22;8817;48.170;8.592;2022-09-09T01:38:59;20.50;43.90
17399;DHT22;8817;48.170;8.592;2022-09-09T01:41:27;20.50;43.90
17399;DHT22;8817;48.170;8.592;2022-09-09T01:43:55;20.50;43.90
17399;DHT22;8817;48.170;8.592;2022-09-09T01:46:23;20.40;43.90
17399;DHT22;8817;48.170;8.592;2022-09-09T01:48:51;20.50;44.00
17399;DHT22;8817;48.170;8.592;2022-09-09T01:51:19;20.50;44.00
17399;DHT22;8817;48.170;8.592;2022-09-09T01:53:46;20.50;44.00
17399;DHT22;8817;48.170;8.592;2022-09-09T01:56:25;20.50;44.10
17399;DHT22;8817;48.170;8.592;2022-09-09T01:59:07;20.50;44.10
17399;DHT22;8817;48.170;8.592;2022-09-09T02:01:48;20.50;44.60
17399;DHT22;8817;48.170;8.592;2022-09-09T02:04:32;20.50;44.00
17399;DHT22;8817;48.170;8.592;2022-09-09T02:07:02;20.50;44.00
17399;DHT22;8817;48.170;8.592;2022-09-09T02:09:32;20.50;44.00
17399;DHT22;8817;48.170;8.592;2022-09-09T02:12:04;20.40;44.00
17399;DHT22;8817;48.170;8.592;2022-09-09T02:14:38;20.40;44.10
17399;DHT22;8817;48.170;8.592;2022-09-09T02:17:10;20.40;44.10
17399;DHT22;8817;48.170;8.592;2022-09-09T02:19:40;20.40;44.20
17399;DHT22;8817;48.170;8.592;2022-09-09T02:22:09;20.40;44.20
17399;DHT22;8817;48.170;8.592;2022-09-09T02:24:38;20.40;44.30
17399;DHT22;8817;48.170;8.592;2022-09-09T02:27:07;20.40;44.40
17399;DHT22;8817;48.170;8.592;2022-09-09T02:29:39;20.40;44.40
17399;DHT22;8817;48.170;8.592;2022-09-09T02:32:11;20.40;44.40
17399;DHT22;8817;48.170;8.592;2022-09-09T02:34:43;20.40;44.40
17399;DHT22;8817;48.170;8.592;2022-09-09T02:37:13;20.50;44.50
17399;DHT22;8817;48.170;8.592;2022-09-09T02:39:41;20.50;44.50
17399;DHT22;8817;48.170;8.592;2022-09-09T02:42:08;20.50;44.50
17399;DHT22;8817;48.170;8.592;2022-09-09T02:44:36;20.50;44.40
17399;DHT22;8817;48.170;8.592;2022-09-09T02:47:15;20.50;44.40
17399;DHT22;8817;48.170;8.592;2022-09-09T02:49:51;20.50;44.50
17399;DHT22;8817;48.170;8.592;2022-09-09T02:52:35;20.40;44.40
17399;DHT22;8817;48.170;8.592;2022-09-09T02:55:09;20.40;44.50
17399;DHT22;8817;48.170;8.592;2022-09-09T02:57:39;20.40;44.60
17399;DHT22;8817;48.170;8.592;2022-09-09T03:00:09;20.40;44.60
17399;DHT22;8817;48.170;8.592;2022-09-09T03:02:37;20.30;44.70
17399;DHT22;8817;48.170;8.592;2022-09-09T03:05:05;20.30;44.70
17399;DHT22;8817;48.170;8.592;2022-09-09T03:07:32;20.30;44.80
17399;DHT22;8817;48.170;8.592;2022-09-09T03:09:59;20.30;45.50
17399;DHT22;8817;48.170;8.592;2022-09-09T03:12:26;20.30;44.90
17399;DHT22;8817;48.170;8.592;2022-09-09T03:14:52;20.30;45.00
17399;DHT22;8817;48.170;8.592;2022-09-09T03:17:21;20.30;45.00
17399;DHT22;8817;48.170;8.592;2022-09-09T03:19:48;20.30;45.00
17399;DHT22;8817;48.170;8.592;2022-09-09T03:22:18;20.30;45.00
17399;DHT22;8817;48.170;8.592;2022-09-09T03:24:45;20.30;45.10
17399;DHT22;8817;48.170;8.592;2022-09-09T03:27:12;20.30;45.10
17399;DHT22;8817;48.170;8.592;2022-09-09T03:29:39;20.30;45.70
17399;DHT22;8817;48.170;8.592;2022-09-09T03:32:06;20.30;45.20
17399;DHT22;8817;48.170;8.592;2022-09-09T03:34:37;20.30;45.20
17399;DHT22;8817;48.170;8.592;2022-09-09T03:37:05;20.20;45.20
17399;DHT22;8817;48.170;8.592;2022-09-09T03:39:32;20.30;45.20
17399;DHT22;8817;48.170;8.592;2022-09-09T03:41:59;20.30;45.20
17399;DHT22;8817;48.170;8.592;2022-09-09T03:44:29;20.30;45.30
17399;DHT22;8817;48.170;8.592;2022-09-09T03:46:56;20.20;45.20
17399;DHT22;8817;48.170;8.592;2022-09-09T03:49:25;20.20;45.20
17399;DHT22;8817;48.170;8.592;2022-09-09T03:51:55;20.20;45.20
17399;DHT22;8817;48.170;8.592;2022-09-09T03:54:24;20.20;45.30
17399;DHT22;8817;48.170;8.592;2022-09-09T03:56:50;20.20;45.30
17399;DHT22;8817;48.170;8.592;2022-09-09T03:59:17;20.20;45.40
17399;DHT22;8817;48.170;8.592;2022-09-09T04:01:46;20.20;45.40
17399;DHT22;8817;48.170;8.592;2022-09-09T04:04:13;20.10;45.40
17399;DHT22;8817;48.170;8.592;2022-09-09T04:06:40;20.10;45.50
17399;DHT22;8817;48.170;8.592;2022-09-09T04:09:08;20.10;45.50
17399;DHT22;8817;48.170;8.592;2022-09-09T04:11:35;20.10;45.50
17399;DHT22;8817;48.170;8.592;2022-09-09T04:14:02;20.10;45.50
17399;DHT22;8817;48.170;8.592;2022-09-09T04:16:31;20.10;45.60
17399;DHT22;8817;48.170;8.592;2022-09-09T04:18:58;20.10;45.60
17399;DHT22;8817;48.170;8.592;2022-09-09T04:21:26;20.00;45.60
17399;DHT22;8817;48.170;8.592;2022-09-09T04:23:53;20.00;45.60
17399;DHT22;8817;48.170;8.592;2022-09-09T04:26:22;20.00;45.70
17399;DHT22;8817;48.170;8.592;2022-09-09T04:28:49;19.90;45.70
17399;DHT22;8817;48.170;8.592;2022-09-09T04:31:17;19.90;45.70
17399;DHT22;8817;48.170;8.592;2022-09-09T04:33:45;19.90;45.80
17399;DHT22;8817;48.170;8.592;2022-09-09T04:36:13;19.90;45.80
17399;DHT22;8817;48.170;8.592;2022-09-09T04:38:40;19.90;45.80
17399;DHT22;8817;48.170;8.592;2022-09-09T04:41:07;19.90;45.90
17399;DHT22;8817;48.170;8.592;2022-09-09T04:43:37;19.80;45.90
17399;DHT22;8817;48.170;8.592;2022-09-09T04:46:05;19.80;46.00
17399;DHT22;8817;48.170;8.592;2022-09-09T04:48:32;19.80;46.00
17399;DHT22;8817;48.170;8.592;2022-09-09T04:51:01;19.80;46.00
17399;DHT22;8817;48.170;8.592;2022-09-09T04:53:29;19.80;46.00
17399;DHT22;8817;48.170;8.592;2022-09-09T04:56:02;19.80;46.10
17399;DHT22;8817;48.170;8.592;2022-09-09T04:58:30;19.70;46.10
17399;DHT22;8817;48.170;8.592;2022-09-09T05:01:05;19.70;46.10
17399;DHT22;8817;48.170;8.592;2022-09-09T05:03:32;19.70;46.20
17399;DHT22;8817;48.170;8.592;2022-09-09T05:06:06;19.70;46.20
17399;DHT22;8817;48.170;8.592;2022-09-09T05:08:33;19.70;46.30
17399;DHT22;8817;48.170;8.592;2022-09-09T05:11:01;19.70;46.30
17399;DHT22;8817;48.170;8.592;2022-09-09T05:13:28;19.70;46.40
17399;DHT22;8817;48.170;8.592;2022-09-09T05:15:57;19.70;46.40
17399;DHT22;8817;48.170;8.592;2022-09-09T05:18:25;19.70;46.50
17399;DHT22;8817;48.170;8.592;2022-09-09T05:20:52;19.70;46.50
17399;DHT22;8817;48.170;8.592;2022-09-09T05:23:19;19.70;46.50
17399;DHT22;8817;48.170;8.592;2022-09-09T05:25:55;19.70;46.50
17399;DHT22;8817;48.170;8.592;2022-09-09T05:28:23;19.70;46.60
17399;DHT22;8817;48.170;8.592;2022-09-09T05:30:58;19.70;46.60
17399;DHT22;8817;48.170;8.592;2022-09-09T05:33:27;19.70;46.60
17399;DHT22;8817;48.170;8.592;2022-09-09T05:35:58;19.70;46.70
17399;DHT22;8817;48.170;8.592;2022-09-09T05:38:25;19.70;46.70
17399;DHT22;8817;48.170;8.592;2022-09-09T05:40:52;19.70;46.80
17399;DHT22;8817;48.170;8.592;2022-09-09T05:43:19;19.70;46.80
17399;DHT22;8817;48.170;8.592;2022-09-09T05:45:46;19.70;46.80
17399;DHT22;8817;48.170;8.592;2022-09-09T05:48:14;19.70;46.90
17399;DHT22;8817;48.170;8.592;2022-09-09T05:50:43;19.70;46.90
17399;DHT22;8817;48.170;8.592;2022-09-09T05:53:10;19.70;47.00
17399;DHT22;8817;48.170;8.592;2022-09-09T05:55:37;19.70;47.00
17399;DHT22;8817;48.170;8.592;2022-09-09T05:58:04;19.70;47.00
17399;DHT22;8817;48.170;8.592;2022-09-09T06:00:31;19.70;47.10
17399;DHT22;8817;48.170;8.592;2022-09-09T06:02:58;19.70;47.10
17399;DHT22;8817;48.170;8.592;2022-09-09T06:05:29;19.70;47.10
17399;DHT22;8817;48.170;8.592;2022-09-09T06:07:57;19.80;47.20
17399;DHT22;8817;48.170;8.592;2022-09-09T06:10:24;19.70;47.30
17399;DHT22;8817;48.170;8.592;2022-09-09T06:12:52;19.80;47.30
17399;DHT22;8817;48.170;8.592;2022-09-09T06:15:20;19.70;47.40
17399;DHT22;8817;48.170;8.592;2022-09-09T06:17:47;19.80;47.50
17399;DHT22;8817;48.170;8.592;2022-09-09T06:20:15;19.70;47.50
17399;DHT22;8817;48.170;8.592;2022-09-09T06:22:41;19.80;47.60
17399;DHT22;8817;48.170;8.592;2022-09-09T06:25:13;19.80;47.60
17399;DHT22;8817;48.170;8.592;2022-09-09T06:27:40;19.80;47.70
17399;DHT22;8817;48.170;8.592;2022-09-09T06:30:09;19.80;47.70
17399;DHT22;8817;48.170;8.592;2022-09-09T06:32:36;19.90;47.80
17399;DHT22;8817;48.170;8.592;2022-09-09T06:35:05;19.90;47.80
17399;DHT22;8817;48.170;8.592;2022-09-09T06:37:33;20.00;47.90
17399;DHT22;8817;48.170;8.592;2022-09-09T06:40:00;20.00;47.90
17399;DHT22;8817;48.170;8.592;2022-09-09T06:42:28;20.00;47.50
17399;DHT22;8817;48.170;8.592;2022-09-09T06:44:55;20.10;48.10
17399;DHT22;8817;48.170;8.592;2022-09-09T06:47:22;20.10;48.10
17399;DHT22;8817;48.170;8.592;2022-09-09T06:49:50;20.10;48.10
17399;DHT22;8817;48.170;8.592;2022-09-09T06:52:17;20.20;48.20
17399;DHT22;8817;48.170;8.592;2022-09-09T06:54:44;20.20;48.20
17399;DHT22;8817;48.170;8.592;2022-09-09T06:57:11;20.20;48.70
17399;DHT22;8817;48.170;8.592;2022-09-09T06:59:39;20.20;48.10
17399;DHT22;8817;48.170;8.592;2022-09-09T07:02:07;20.20;48.10
17399;DHT22;8817;48.170;8.592;2022-09-09T07:04:34;20.30;48.20
17399;DHT22;8817;48.170;8.592;2022-09-09T07:07:02;20.30;48.20
17399;DHT22;8817;48.170;8.592;2022-09-09T07:09:29;20.30;48.20
17399;DHT22;8817;48.170;8.592;2022-09-09T07:11:57;20.30;48.20
17399;DHT22;8817;48.170;8.592;2022-09-09T07:14:25;20.30;48.30
17399;DHT22;8817;48.170;8.592;2022-09-09T07:16:54;20.30;48.30
17399;DHT22;8817;48.170;8.592;2022-09-09T07:19:21;20.30;48.30
17399;DHT22;8817;48.170;8.592;2022-09-09T07:21:48;20.20;48.30
17399;DHT22;8817;48.170;8.592;2022-09-09T07:24:14;20.30;48.40
17399;DHT22;8817;48.170;8.592;2022-09-09T07:26:42;20.20;48.30
17399;DHT22;8817;48.170;8.592;2022-09-09T07:29:09;20.30;48.40
17399;DHT22;8817;48.170;8.592;2022-09-09T07:31:39;20.20;48.50
17399;DHT22;8817;48.170;8.592;2022-09-09T07:34:08;20.20;48.60
17399;DHT22;8817;48.170;8.592;2022-09-09T07:36:36;20.20;48.60
17399;DHT22;8817;48.170;8.592;2022-09-09T07:39:05;20.30;48.70
17399;DHT22;8817;48.170;8.592;2022-09-09T07:41:35;20.30;48.70
17399;DHT22;8817;48.170;8.592;2022-09-09T07:44:05;20.30;48.80
17399;DHT22;8817;48.170;8.592;2022-09-09T07:46:34;20.30;48.80
17399;DHT22;8817;48.170;8.592;2022-09-09T07:49:02;20.30;48.80
17399;DHT22;8817;48.170;8.592;2022-09-09T07:51:32;20.30;48.80
17399;DHT22;8817;48.170;8.592;2022-09-09T07:54:00;20.30;49.50
17399;DHT22;8817;48.170;8.592;2022-09-09T07:56:29;20.40;49.10
17399;DHT22;8817;48.170;8.592;2022-09-09T07:58:58;20.40;49.10
17399;DHT22;8817;48.170;8.592;2022-09-09T08:01:26;20.40;49.10
17399;DHT22;8817;48.170;8.592;2022-09-09T08:03:56;20.40;49.20
17399;DHT22;8817;48.170;8.592;2022-09-09T08:06:25;20.40;49.30
17399;DHT22;8817;48.170;8.592;2022-09-09T08:08:54;20.50;49.40
17399;DHT22;8817;48.170;8.592;2022-09-09T08:11:22;20.50;49.50
17399;DHT22;8817;48.170;8.592;2022-09-09T08:13:50;20.60;49.70
17399;DHT22;8817;48.170;8.592;2022-09-09T08:16:19;20.60;49.90
17399;DHT22;8817;48.170;8.592;2022-09-09T08:18:47;20.70;50.10
17399;DHT22;8817;48.170;8.592;2022-09-09T08:21:16;20.80;50.10
17399;DHT22;8817;48.170;8.592;2022-09-09T08:23:45;20.90;50.20
17399;DHT22;8817;48.170;8.592;2022-09-09T08:26:16;21.10;50.30
17399;DHT22;8817;48.170;8.592;2022-09-09T08:28:45;21.20;50.30
17399;DHT22;8817;48.170;8.592;2022-09-09T08:31:13;21.30;50.40
17399;DHT22;8817;48.170;8.592;2022-09-09T08:33:41;21.40;50.40
17399;DHT22;8817;48.170;8.592;2022-09-09T08:36:11;21.50;50.40
17399;DHT22;8817;48.170;8.592;2022-09-09T08:38:38;21.60;50.30
17399;DHT22;8817;48.170;8.592;2022-09-09T08:44:07;21.70;50.10
17399;DHT22;8817;48.170;8.592;2022-09-09T08:46:44;21.70;49.90
17399;DHT22;8817;48.170;8.592;2022-09-09T08:49:22;21.70;49.80
17399;DHT22;8817;48.170;8.592;2022-09-09T08:51:55;21.70;49.80
17399;DHT22;8817;48.170;8.592;2022-09-09T08:54:23;21.80;50.10
17399;DHT22;8817;48.170;8.592;2022-09-09T08:56:51;21.90;50.30
17399;DHT22;8817;48.170;8.592;2022-09-09T08:59:19;21.90;50.50
17399;DHT22;8817;48.170;8.592;2022-09-09T09:02:00;22.00;50.50
17399;DHT22;8817;48.170;8.592;2022-09-09T09:04:40;22.00;50.40
17399;DHT22;8817;48.170;8.592;2022-09-09T09:07:19;22.10;50.30
17399;DHT22;8817;48.170;8.592;2022-09-09T09:09:55;22.10;50.10
17399;DHT22;8817;48.170;8.592;2022-09-09T09:12:28;22.10;49.90
17399;DHT22;8817;48.170;8.592;2022-09-09T09:14:59;22.10;49.80
17399;DHT22;8817;48.170;8.592;2022-09-09T09:17:28;22.10;49.70
17399;DHT22;8817;48.170;8.592;2022-09-09T09:19:57;22.00;49.60
17399;DHT22;8817;48.170;8.592;2022-09-09T09:22:30;22.00;49.60
17399;DHT22;8817;48.170;8.592;2022-09-09T09:25:02;21.90;49.60
17399;DHT22;8817;48.170;8.592;2022-09-09T09:27:34;21.90;49.90
17399;DHT22;8817;48.170;8.592;2022-09-09T09:30:14;21.90;49.90
17399;DHT22;8817;48.170;8.592;2022-09-09T09:32:47;21.90;50.00
17399;DHT22;8817;48.170;8.592;2022-09-09T09:35:16;21.90;50.00
17399;DHT22;8817;48.170;8.592;2022-09-09T09:37:43;21.90;50.10
17399;DHT22;8817;48.170;8.592;2022-09-09T09:40:12;21.90;50.20
17399;DHT22;8817;48.170;8.592;2022-09-09T09:42:49;21.90;50.30
17399;DHT22;8817;48.170;8.592;2022-09-09T09:45:26;22.00;50.50
17399;DHT22;8817;48.170;8.592;2022-09-09T09:47:59;22.10;50.70
17399;DHT22;8817;48.170;8.592;2022-09-09T09:50:28;22.20;50.70
17399;DHT22;8817;48.170;8.592;2022-09-09T09:52:56;22.30;50.60
17399;DHT22;8817;48.170;8.592;2022-09-09T09:55:24;22.40;50.60
17399;DHT22;8817;48.170;8.592;2022-09-09T09:57:53;22.50;50.60
17399;DHT22;8817;48.170;8.592;2022-09-09T10:00:22;22.60;50.60
17399;DHT22;8817;48.170;8.592;2022-09-09T10:02:50;22.70;50.40
17399;DHT22;8817;48.170;8.592;2022-09-09T10:05:20;22.70;50.30
17399;DHT22;8817;48.170;8.592;2022-09-09T10:07:59;22.80;50.30
17399;DHT22;8817;48.170;8.592;2022-09-09T10:10:37;22.90;50.30
17399;DHT22;8817;48.170;8.592;2022-09-09T10:13:13;22.90;50.20
17399;DHT22;8817;48.170;8.592;2022-09-09T10:15:48;23.00;50.10
17399;DHT22;8817;48.170;8.592;2022-09-09T10:18:41;23.10;50.10
17399;DHT22;8817;48.170;8.592;2022-09-09T10:21:20;23.10;49.80
17399;DHT22;8817;48.170;8.592;2022-09-09T10:24:13;23.20;49.80
17399;DHT22;8817;48.170;8.592;2022-09-09T10:26:48;23.20;49.80
17399;DHT22;8817;48.170;8.592;2022-09-09T10:29:32;23.20;49.80
17399;DHT22;8817;48.170;8.592;2022-09-09T10:32:23;23.30;49.80
17399;DHT22;8817;48.170;8.592;2022-09-09T10:34:56;23.40;49.80
17399;DHT22;8817;48.170;8.592;2022-09-09T10:37:37;23.50;49.90
17399;DHT22;8817;48.170;8.592;2022-09-09T10:40:23;23.50;49.60
17399;DHT22;8817;48.170;8.592;2022-09-09T10:42:55;23.60;49.20
17399;DHT22;8817;48.170;8.592;2022-09-09T10:45:30;23.70;49.20
17399;DHT22;8817;48.170;8.592;2022-09-09T10:48:21;23.80;49.40
17399;DHT22;8817;48.170;8.592;2022-09-09T10:50:56;23.90;49.00
17399;DHT22;8817;48.170;8.592;2022-09-09T10:53:36;23.90;48.50
17399;DHT22;8817;48.170;8.592;2022-09-09T10:56:07;24.00;48.40
17399;DHT22;8817;48.170;8.592;2022-09-09T10:58:42;24.00;48.40
17399;DHT22;8817;48.170;8.592;2022-09-09T11:01:16;24.10;48.50
17399;DHT22;8817;48.170;8.592;2022-09-09T11:03:51;24.10;47.80
17399;DHT22;8817;48.170;8.592;2022-09-09T11:06:24;24.20;47.70
17399;DHT22;8817;48.170;8.592;2022-09-09T11:08:53;24.20;47.40
17399;DHT22;8817;48.170;8.592;2022-09-09T11:11:26;24.30;47.50
17399;DHT22;8817;48.170;8.592;2022-09-09T11:13:57;24.30;47.20
17399;DHT22;8817;48.170;8.592;2022-09-09T11:16:29;24.30;47.20
17399;DHT22;8817;48.170;8.592;2022-09-09T11:19:03;24.40;47.30
17399;DHT22;8817;48.170;8.592;2022-09-09T11:21:34;24.30;47.00
17399;DHT22;8817;48.170;8.592;2022-09-09T11:24:06;24.40;47.20
17399;DHT22;8817;48.170;8.592;2022-09-09T11:26:38;24.50;47.10
17399;DHT22;8817;48.170;8.592;2022-09-09T11:29:25;24.60;47.00
17399;DHT22;8817;48.170;8.592;2022-09-09T11:32:06;24.60;47.10
17399;DHT22;8817;48.170;8.592;2022-09-09T11:34:48;24.70;47.00
17399;DHT22;8817;48.170;8.592;2022-09-09T11:37:33;24.80;47.00
17399;DHT22;8817;48.170;8.592;2022-09-09T11:40:22;24.90;46.80
17399;DHT22;8817;48.170;8.592;2022-09-09T11:43:01;25.00;47.00
17399;DHT22;8817;48.170;8.592;2022-09-09T11:45:29;25.10;46.80
17399;DHT22;8817;48.170;8.592;2022-09-09T11:47:57;25.30;46.90
17399;DHT22;8817;48.170;8.592;2022-09-09T11:50:34;25.30;46.40
17399;DHT22;8817;48.170;8.592;2022-09-09T11:53:21;25.30;46.10
17399;DHT22;8817;48.170;8.592;2022-09-09T11:56:00;25.30;46.00
17399;DHT22;8817;48.170;8.592;2022-09-09T11:58:33;25.20;45.80
17399;DHT22;8817;48.170;8.592;2022-09-09T12:01:13;25.10;45.70
17399;DHT22;8817;48.170;8.592;2022-09-09T12:03:43;25.00;46.00
17399;DHT22;8817;48.170;8.592;2022-09-09T12:06:17;25.10;46.10
17399;DHT22;8817;48.170;8.592;2022-09-09T12:08:47;25.10;46.20
17399;DHT22;8817;48.170;8.592;2022-09-09T12:11:24;25.20;46.10
17399;DHT22;8817;48.170;8.592;2022-09-09T12:13:55;25.10;45.80
17399;DHT22;8817;48.170;8.592;2022-09-09T12:16:32;25.10;45.60
17399;DHT22;8817;48.170;8.592;2022-09-09T12:19:05;25.10;45.70
17399;DHT22;8817;48.170;8.592;2022-09-09T12:21:39;25.10;45.60
17399;DHT22;8817;48.170;8.592;2022-09-09T12:24:10;25.10;45.50
17399;DHT22;8817;48.170;8.592;2022-09-09T12:26:41;25.10;45.70
17399;DHT22;8817;48.170;8.592;2022-09-09T12:29:19;25.10;45.70
17399;DHT22;8817;48.170;8.592;2022-09-09T12:31:55;25.10;45.90
17399;DHT22;8817;48.170;8.592;2022-09-09T12:34:39;25.20;46.00
17399;DHT22;8817;48.170;8.592;2022-09-09T12:37:25;25.30;45.90
17399;DHT22;8817;48.170;8.592;2022-09-09T12:39:55;25.30;45.80
17399;DHT22;8817;48.170;8.592;2022-09-09T12:42:23;25.40;45.80
17399;DHT22;8817;48.170;8.592;2022-09-09T12:44:52;25.50;45.60
17399;DHT22;8817;48.170;8.592;2022-09-09T12:47:22;25.50;45.30
17399;DHT22;8817;48.170;8.592;2022-09-09T12:49:51;25.50;45.40
17399;DHT22;8817;48.170;8.592;2022-09-09T12:52:24;25.50;45.20
17399;DHT22;8817;48.170;8.592;2022-09-09T12:54:55;25.50;45.00
17399;DHT22;8817;48.170;8.592;2022-09-09T12:57:24;25.50;44.90
17399;DHT22;8817;48.170;8.592;2022-09-09T12:59:52;25.50;44.80
17399;DHT22;8817;48.170;8.592;2022-09-09T13:02:21;25.50;44.70
17399;DHT22;8817;48.170;8.592;2022-09-09T13:04:49;25.50;44.70
17399;DHT22;8817;48.170;8.592;2022-09-09T13:07:17;25.50;44.70
17399;DHT22;8817;48.170;8.592;2022-09-09T13:09:47;25.50;44.70
17399;DHT22;8817;48.170;8.592;2022-09-09T13:12:17;25.50;44.40
17399;DHT22;8817;48.170;8.592;2022-09-09T13:14:46;25.50;44.30
17399;DHT22;8817;48.170;8.592;2022-09-09T13:17:21;25.50;43.90
17399;DHT22;8817;48.170;8.592;2022-09-09T13:19:49;25.40;43.90
17399;DHT22;8817;48.170;8.592;2022-09-09T13:22:21;25.30;43.70
17399;DHT22;8817;48.170;8.592;2022-09-09T13:25:02;25.20;43.60
17399;DHT22;8817;48.170;8.592;2022-09-09T13:27:30;25.10;43.50
17399;DHT22;8817;48.170;8.592;2022-09-09T13:29:59;25.00;43.50
17399;DHT22;8817;48.170;8.592;2022-09-09T13:32:28;24.90;43.60
17399;DHT22;8817;48.170;8.592;2022-09-09T13:34:58;24.90;43.80
17399;DHT22;8817;48.170;8.592;2022-09-09T13:37:30;24.90;44.00
17399;DHT22;8817;48.170;8.592;2022-09-09T13:40:01;24.90;44.20
17399;DHT22;8817;48.170;8.592;2022-09-09T13:42:30;24.90;44.20
17399;DHT22;8817;48.170;8.592;2022-09-09T13:44:59;25.00;44.20
17399;DHT22;8817;48.170;8.592;2022-09-09T13:47:32;25.00;44.30
17399;DHT22;8817;48.170;8.592;2022-09-09T13:50:15;25.00;44.40
17399;DHT22;8817;48.170;8.592;2022-09-09T13:52:45;25.20;44.40
17399;DHT22;8817;48.170;8.592;2022-09-09T13:55:14;25.20;44.00
17399;DHT22;8817;48.170;8.592;2022-09-09T13:57:51;25.20;43.70
17399;DHT22;8817;48.170;8.592;2022-09-09T14:00:18;25.20;43.60
17399;DHT22;8817;48.170;8.592;2022-09-09T14:02:46;25.20;43.40
17399;DHT22;8817;48.170;8.592;2022-09-09T14:05:13;25.10;43.20
17399;DHT22;8817;48.170;8.592;2022-09-09T14:07:41;25.00;43.20
17399;DHT22;8817;48.170;8.592;2022-09-09T14:10:09;24.90;43.10
17399;DHT22;8817;48.170;8.592;2022-09-09T14:12:37;24.80;43.00
17399;DHT22;8817;48.170;8.592;2022-09-09T14:15:06;24.70;42.80
17399;DHT22;8817;48.170;8.592;2022-09-09T14:17:33;24.60;42.80
17399;DHT22;8817;48.170;8.592;2022-09-09T14:20:01;24.50;42.80
17399;DHT22;8817;48.170;8.592;2022-09-09T14:22:28;24.40;42.70
17399;DHT22;8817;48.170;8.592;2022-09-09T14:24:55;24.30;42.60
17399;DHT22;8817;48.170;8.592;2022-09-09T14:27:23;24.10;42.60
17399;DHT22;8817;48.170;8.592;2022-09-09T14:29:52;24.00;42.80
17399;DHT22;8817;48.170;8.592;2022-09-09T14:32:20;23.90;42.80
17399;DHT22;8817;48.170;8.592;2022-09-09T14:34:47;23.90;42.80
17399;DHT22;8817;48.170;8.592;2022-09-09T14:37:15;23.70;42.50
17399;DHT22;8817;48.170;8.592;2022-09-09T14:39:43;23.60;42.60
17399;DHT22;8817;48.170;8.592;2022-09-09T14:42:12;23.50;42.60
17399;DHT22;8817;48.170;8.592;2022-09-09T14:44:40;23.30;42.70
17399;DHT22;8817;48.170;8.592;2022-09-09T14:47:08;23.20;42.80
17399;DHT22;8817;48.170;8.592;2022-09-09T14:49:35;23.10;43.10
17399;DHT22;8817;48.170;8.592;2022-09-09T14:52:03;23.00;43.20
17399;DHT22;8817;48.170;8.592;2022-09-09T14:54:30;23.00;43.30
17399;DHT22;8817;48.170;8.592;2022-09-09T14:56:57;23.00;43.40
17399;DHT22;8817;48.170;8.592;2022-09-09T14:59:25;23.00;43.60
17399;DHT22;8817;48.170;8.592;2022-09-09T15:01:52;23.00;43.80
17399;DHT22;8817;48.170;8.592;2022-09-09T15:04:20;23.10;44.70
17399;DHT22;8817;48.170;8.592;2022-09-09T15:06:47;23.20;44.60
17399;DHT22;8817;48.170;8.592;2022-09-09T15:09:15;23.40;45.00
17399;DHT22;8817;48.170;8.592;2022-09-09T15:11:42;23.60;45.20
17399;DHT22;8817;48.170;8.592;2022-09-09T15:14:09;23.80;45.40
17399;DHT22;8817;48.170;8.592;2022-09-09T15:16:38;24.10;45.20
17399;DHT22;8817;48.170;8.592;2022-09-09T15:19:06;24.30;45.00
17399;DHT22;8817;48.170;8.592;2022-09-09T15:21:35;24.60;44.80
17399;DHT22;8817;48.170;8.592;2022-09-09T15:24:03;24.70;44.30
17399;DHT22;8817;48.170;8.592;2022-09-09T15:26:30;24.90;43.70
17399;DHT22;8817;48.170;8.592;2022-09-09T15:28:58;25.00;43.40
17399;DHT22;8817;48.170;8.592;2022-09-09T15:31:27;25.00;43.00
17399;DHT22;8817;48.170;8.592;2022-09-09T15:33:57;25.00;42.40
17399;DHT22;8817;48.170;8.592;2022-09-09T15:36:27;24.90;42.20
17399;DHT22;8817;48.170;8.592;2022-09-09T15:38:57;24.80;42.10
17399;DHT22;8817;48.170;8.592;2022-09-09T15:41:24;24.70;42.00
17399;DHT22;8817;48.170;8.592;2022-09-09T15:43:53;24.50;42.00
17399;DHT22;8817;48.170;8.592;2022-09-09T15:46:25;24.40;42.00
17399;DHT22;8817;48.170;8.592;2022-09-09T15:48:53;24.30;42.00
17399;DHT22;8817;48.170;8.592;2022-09-09T15:51:21;24.20;42.10
17399;DHT22;8817;48.170;8.592;2022-09-09T15:53:49;24.10;42.10
17399;DHT22;8817;48.170;8.592;2022-09-09T15:56:21;24.10;42.10
17399;DHT22;8817;48.170;8.592;2022-09-09T15:58:48;23.90;42.00
17399;DHT22;8817;48.170;8.592;2022-09-09T16:01:15;23.80;42.10
17399;DHT22;8817;48.170;8.592;2022-09-09T16:03:45;23.70;42.10
17399;DHT22;8817;48.170;8.592;2022-09-09T16:06:12;23.60;42.10
17399;DHT22;8817;48.170;8.592;2022-09-09T16:08:41;23.60;42.20
17399;DHT22;8817;48.170;8.592;2022-09-09T16:11:10;23.50;42.30